sensor_id;sensor_type;location;lat;lon;timestamp;temperature;humidity
25128;DHT22;13107;51.304;6.866;2024-01-30T00:01:13;8.70;99.90
25128;DHT22;13107;51.304;6.866;2024-01-30T00:05:15;8.70;99.90
25128;DHT22;13107;51.304;6.866;2024-01-30T00:09:17;8.70;99.90
25128;DHT22;13107;51.304;6.866;2024-01-30T00:13:18;8.70;99.90
25128;DHT22;13107;51.304;6.866;2024-01-30T00:17:21;8.70;99.90
25128;DHT22;13107;51.304;6.866;2024-01-30T00:21:23;8.80;99.90
25128;DHT22;13107;51.304;6.866;2024-01-30T00:25:25;8.70;99.90
25128;DHT22;13107;51.304;6.866;2024-01-30T00:29:27;8.70;99.90
25128;DHT22;13107;51.304;6.866;2024-01-30T00:33:32;8.70;99.90
25128;DHT22;13107;51.304;6.866;2024-01-30T00:37:33;8.70;99.90
25128;DHT22;13107;51.304;6.866;2024-01-30T00:41:35;8.60;99.90
25128;DHT22;13107;51.304;6.866;2024-01-30T00:45:37;8.50;99.90
25128;DHT22;13107;51.304;6.866;2024-01-30T00:49:39;8.50;99.90
25128;DHT22;13107;51.304;6.866;2024-01-30T00:53:41;8.50;99.90
25128;DHT22;13107;51.304;6.866;2024-01-30T00:57:43;8.50;99.90
25128;DHT22;13107;51.304;6.866;2024-01-30T01:01:47;8.40;99.90
25128;DHT22;13107;51.304;6.866;2024-01-30T01:05:48;8.40;99.90
25128;DHT22;13107;51.304;6.866;2024-01-30T01:09:50;8.30;99.90
25128;DHT22;13107;51.304;6.866;2024-01-30T01:13:52;8.20;99.90
25128;DHT22;13107;51.304;6.866;2024-01-30T01:17:54;8.20;99.90
25128;DHT22;13107;51.304;6.866;2024-01-30T01:21:55;8.20;99.90
25128;DHT22;13107;51.304;6.866;2024-01-30T01:25:59;8.20;99.90
25128;DHT22;13107;51.304;6.866;2024-01-30T01:30:02;8.10;99.90
25128;DHT22;13107;51.304;6.866;2024-01-30T01:34:07;8.00;99.90
25128;DHT22;13107;51.304;6.866;2024-01-30T01:38:09;8.10;99.90
25128;DHT22;13107;51.304;6.866;2024-01-30T01:42:11;8.20;99.90
25128;DHT22;13107;51.304;6.866;2024-01-30T01:46:12;8.20;99.90
25128;DHT22;13107;51.304;6.866;2024-01-30T01:50:15;8.20;99.90
25128;DHT22;13107;51.304;6.866;2024-01-30T01:54:21;8.10;99.90
25128;DHT22;13107;51.304;6.866;2024-01-30T01:58:25;8.00;99.90
25128;DHT22;13107;51.304;6.866;2024-01-30T02:02:30;8.00;99.90
25128;DHT22;13107;51.304;6.866;2024-01-30T02:06:32;8.00;99.90
25128;DHT22;13107;51.304;6.866;2024-01-30T02:10:35;8.10;99.90
25128;DHT22;13107;51.304;6.866;2024-01-30T02:14:49;8.10;99.90
25128;DHT22;13107;51.304;6.866;2024-01-30T02:18:51;8.00;99.90
25128;DHT22;13107;51.304;6.866;2024-01-30T02:22:54;8.10;99.90
25128;DHT22;13107;51.304;6.866;2024-01-30T02:26:57;8.10;99.90
25128;DHT22;13107;51.304;6.866;2024-01-30T02:30:59;8.10;99.90
25128;DHT22;13107;51.304;6.866;2024-01-30T02:35:00;8.10;99.90
25128;DHT22;13107;51.304;6.866;2024-01-30T02:39:03;8.20;99.90
25128;DHT22;13107;51.304;6.866;2024-01-30T02:43:05;8.20;99.90
25128;DHT22;13107;51.304;6.866;2024-01-30T02:47:06;8.20;99.90
25128;DHT22;13107;51.304;6.866;2024-01-30T02:51:08;8.10;99.90
25128;DHT22;13107;51.304;6.866;2024-01-30T02:55:10;8.00;99.90
25128;DHT22;13107;51.304;6.866;2024-01-30T02:59:12;8.00;99.90
25128;DHT22;13107;51.304;6.866;2024-01-30T03:03:14;8.10;99.90
25128;DHT22;13107;51.304;6.866;2024-01-30T03:07:16;8.20;99.90
25128;DHT22;13107;51.304;6.866;2024-01-30T03:11:18;8.20;99.90
25128;DHT22;13107;51.304;6.866;2024-01-30T03:15:19;8.20;99.90
25128;DHT22;13107;51.304;6.866;2024-01-30T03:19:21;8.20;99.90
25128;DHT22;13107;51.304;6.866;2024-01-30T03:23:24;8.20;99.90
25128;DHT22;13107;51.304;6.866;2024-01-30T03:27:25;8.30;99.90
25128;DHT22;13107;51.304;6.866;2024-01-30T03:31:27;8.20;99.90
25128;DHT22;13107;51.304;6.866;2024-01-30T03:35:29;8.20;99.90
25128;DHT22;13107;51.304;6.866;2024-01-30T03:39:31;8.10;99.90
25128;DHT22;13107;51.304;6.866;2024-01-30T03:43:32;8.20;99.90
25128;DHT22;13107;51.304;6.866;2024-01-30T03:47:34;8.30;99.90
25128;DHT22;13107;51.304;6.866;2024-01-30T03:51:36;8.30;99.90
25128;DHT22;13107;51.304;6.866;2024-01-30T03:55:38;8.30;99.90
25128;DHT22;13107;51.304;6.866;2024-01-30T03:59:44;8.30;99.90
25128;DHT22;13107;51.304;6.866;2024-01-30T04:03:46;8.30;99.90
25128;DHT22;13107;51.304;6.866;2024-01-30T04:07:48;8.30;99.90
25128;DHT22;13107;51.304;6.866;2024-01-30T04:11:50;8.20;99.90
25128;DHT22;13107;51.304;6.866;2024-01-30T04:15:51;8.30;99.90
25128;DHT22;13107;51.304;6.866;2024-01-30T04:19:53;8.30;99.90
25128;DHT22;13107;51.304;6.866;2024-01-30T04:23:55;8.40;99.90
25128;DHT22;13107;51.304;6.866;2024-01-30T04:27:57;8.30;99.90
25128;DHT22;13107;51.304;6.866;2024-01-30T04:31:59;8.20;99.90
25128;DHT22;13107;51.304;6.866;2024-01-30T04:36:01;8.20;99.90
25128;DHT22;13107;51.304;6.866;2024-01-30T04:40:03;8.20;99.90
25128;DHT22;13107;51.304;6.866;2024-01-30T04:44:04;8.20;99.90
25128;DHT22;13107;51.304;6.866;2024-01-30T04:48:06;8.30;99.90
25128;DHT22;13107;51.304;6.866;2024-01-30T04:52:08;8.30;99.90
25128;DHT22;13107;51.304;6.866;2024-01-30T04:56:10;8.40;99.90
25128;DHT22;13107;51.304;6.866;2024-01-30T05:00:12;8.50;99.90
25128;DHT22;13107;51.304;6.866;2024-01-30T05:04:14;8.30;99.90
25128;DHT22;13107;51.304;6.866;2024-01-30T05:08:18;8.40;99.90
25128;DHT22;13107;51.304;6.866;2024-01-30T05:12:20;8.40;99.90
25128;DHT22;13107;51.304;6.866;2024-01-30T05:16:22;8.40;99.90
25128;DHT22;13107;51.304;6.866;2024-01-30T05:20:24;8.50;99.90
25128;DHT22;13107;51.304;6.866;2024-01-30T05:24:29;8.40;99.90
25128;DHT22;13107;51.304;6.866;2024-01-30T05:28:31;8.40;99.90
25128;DHT22;13107;51.304;6.866;2024-01-30T05:32:33;8.40;99.90
25128;DHT22;13107;51.304;6.866;2024-01-30T05:36:35;8.30;99.90
25128;DHT22;13107;51.304;6.866;2024-01-30T05:40:37;8.30;99.90
25128;DHT22;13107;51.304;6.866;2024-01-30T05:44:38;8.30;99.90
25128;DHT22;13107;51.304;6.866;2024-01-30T05:48:40;8.30;99.90
25128;DHT22;13107;51.304;6.866;2024-01-30T05:52:42;8.20;99.90
25128;DHT22;13107;51.304;6.866;2024-01-30T05:56:43;8.20;99.90
25128;DHT22;13107;51.304;6.866;2024-01-30T06:00:45;8.20;99.90
25128;DHT22;13107;51.304;6.866;2024-01-30T06:04:47;8.20;99.90
25128;DHT22;13107;51.304;6.866;2024-01-30T06:08:49;8.20;99.90
25128;DHT22;13107;51.304;6.866;2024-01-30T06:12:50;8.20;99.90
25128;DHT22;13107;51.304;6.866;2024-01-30T06:16:52;8.20;99.90
25128;DHT22;13107;51.304;6.866;2024-01-30T06:20:54;8.10;99.90
25128;DHT22;13107;51.304;6.866;2024-01-30T06:24:56;8.20;99.90
25128;DHT22;13107;51.304;6.866;2024-01-30T06:28:57;8.20;99.90
25128;DHT22;13107;51.304;6.866;2024-01-30T06:32:59;8.20;99.90
25128;DHT22;13107;51.304;6.866;2024-01-30T06:37:01;8.30;99.90
25128;DHT22;13107;51.304;6.866;2024-01-30T06:41:03;8.30;99.90
25128;DHT22;13107;51.304;6.866;2024-01-30T06:45:05;8.30;99.90
25128;DHT22;13107;51.304;6.866;2024-01-30T06:49:07;8.30;99.90
25128;DHT22;13107;51.304;6.866;2024-01-30T06:53:09;8.30;99.90
25128;DHT22;13107;51.304;6.866;2024-01-30T06:57:11;8.40;99.90
25128;DHT22;13107;51.304;6.866;2024-01-30T07:01:13;8.40;99.90
25128;DHT22;13107;51.304;6.866;2024-01-30T07:05:15;8.40;99.90
25128;DHT22;13107;51.304;6.866;2024-01-30T07:09:18;8.40;99.90
25128;DHT22;13107;51.304;6.866;2024-01-30T07:13:20;8.40;99.90
25128;DHT22;13107;51.304;6.866;2024-01-30T07:17:22;8.40;99.90
25128;DHT22;13107;51.304;6.866;2024-01-30T07:21:24;8.40;99.90
25128;DHT22;13107;51.304;6.866;2024-01-30T07:25:29;8.40;99.90
25128;DHT22;13107;51.304;6.866;2024-01-30T07:29:31;8.40;99.90
25128;DHT22;13107;51.304;6.866;2024-01-30T07:33:33;8.50;99.90
25128;DHT22;13107;51.304;6.866;2024-01-30T07:37:35;8.50;99.90
25128;DHT22;13107;51.304;6.866;2024-01-30T07:41:37;8.60;99.90
25128;DHT22;13107;51.304;6.866;2024-01-30T07:45:39;8.60;99.90
25128;DHT22;13107;51.304;6.866;2024-01-30T07:49:41;8.60;99.90
25128;DHT22;13107;51.304;6.866;2024-01-30T07:53:43;8.70;99.90
25128;DHT22;13107;51.304;6.866;2024-01-30T07:57:44;8.60;99.90
25128;DHT22;13107;51.304;6.866;2024-01-30T08:02:02;8.70;99.90
25128;DHT22;13107;51.304;6.866;2024-01-30T08:06:04;8.70;99.90
25128;DHT22;13107;51.304;6.866;2024-01-30T08:10:06;8.80;99.90
25128;DHT22;13107;51.304;6.866;2024-01-30T08:14:08;8.80;99.90
25128;DHT22;13107;51.304;6.866;2024-01-30T08:18:09;8.80;99.90
25128;DHT22;13107;51.304;6.866;2024-01-30T08:22:12;8.80;99.90
25128;DHT22;13107;51.304;6.866;2024-01-30T08:26:14;8.80;99.90
25128;DHT22;13107;51.304;6.866;2024-01-30T08:30:16;8.90;99.90
25128;DHT22;13107;51.304;6.866;2024-01-30T08:34:17;9.00;99.90
25128;DHT22;13107;51.304;6.866;2024-01-30T08:38:19;9.00;99.90
25128;DHT22;13107;51.304;6.866;2024-01-30T08:42:21;9.00;99.90
25128;DHT22;13107;51.304;6.866;2024-01-30T08:46:26;9.10;99.90
25128;DHT22;13107;51.304;6.866;2024-01-30T08:50:28;9.10;99.90
25128;DHT22;13107;51.304;6.866;2024-01-30T08:54:31;9.20;99.90
25128;DHT22;13107;51.304;6.866;2024-01-30T08:58:35;9.20;99.90
25128;DHT22;13107;51.304;6.866;2024-01-30T09:02:37;9.30;99.90
25128;DHT22;13107;51.304;6.866;2024-01-30T09:06:39;9.30;99.90
25128;DHT22;13107;51.304;6.866;2024-01-30T09:10:41;9.30;99.90
25128;DHT22;13107;51.304;6.866;2024-01-30T09:14:42;9.40;99.90
25128;DHT22;13107;51.304;6.866;2024-01-30T09:18:44;9.40;99.90
25128;DHT22;13107;51.304;6.866;2024-01-30T09:22:46;9.40;99.90
25128;DHT22;13107;51.304;6.866;2024-01-30T09:26:48;9.50;99.90
25128;DHT22;13107;51.304;6.866;2024-01-30T09:30:50;9.60;99.90
25128;DHT22;13107;51.304;6.866;2024-01-30T09:34:51;9.60;99.90
25128;DHT22;13107;51.304;6.866;2024-01-30T09:38:55;9.70;99.90
25128;DHT22;13107;51.304;6.866;2024-01-30T09:42:56;9.90;99.90
25128;DHT22;13107;51.304;6.866;2024-01-30T09:47:01;10.00;99.90
25128;DHT22;13107;51.304;6.866;2024-01-30T09:51:05;10.20;99.90
25128;DHT22;13107;51.304;6.866;2024-01-30T09:55:08;10.20;99.90
25128;DHT22;13107;51.304;6.866;2024-01-30T09:59:10;10.20;99.90
25128;DHT22;13107;51.304;6.866;2024-01-30T10:03:11;10.30;99.90
25128;DHT22;13107;51.304;6.866;2024-01-30T10:07:17;10.60;99.90
25128;DHT22;13107;51.304;6.866;2024-01-30T10:11:20;10.60;99.90
25128;DHT22;13107;51.304;6.866;2024-01-30T10:15:23;10.80;99.90
25128;DHT22;13107;51.304;6.866;2024-01-30T10:19:25;10.80;99.90
25128;DHT22;13107;51.304;6.866;2024-01-30T10:23:27;10.70;99.90
25128;DHT22;13107;51.304;6.866;2024-01-30T10:27:36;10.70;99.90
25128;DHT22;13107;51.304;6.866;2024-01-30T10:31:38;10.70;99.90
25128;DHT22;13107;51.304;6.866;2024-01-30T10:35:40;10.80;99.90
25128;DHT22;13107;51.304;6.866;2024-01-30T10:39:44;11.00;99.90
25128;DHT22;13107;51.304;6.866;2024-01-30T10:43:50;11.00;99.90
25128;DHT22;13107;51.304;6.866;2024-01-30T10:47:58;11.00;99.90
25128;DHT22;13107;51.304;6.866;2024-01-30T10:52:03;11.00;99.90
25128;DHT22;13107;51.304;6.866;2024-01-30T10:56:08;11.00;99.90
25128;DHT22;13107;51.304;6.866;2024-01-30T11:00:12;11.30;99.90
25128;DHT22;13107;51.304;6.866;2024-01-30T11:04:15;11.40;99.90
25128;DHT22;13107;51.304;6.866;2024-01-30T11:08:26;11.60;99.90
25128;DHT22;13107;51.304;6.866;2024-01-30T11:12:37;11.70;99.90
25128;DHT22;13107;51.304;6.866;2024-01-30T11:16:42;11.60;99.90
25128;DHT22;13107;51.304;6.866;2024-01-30T11:20:47;11.70;99.90
25128;DHT22;13107;51.304;6.866;2024-01-30T11:24:49;11.70;99.90
25128;DHT22;13107;51.304;6.866;2024-01-30T11:28:55;11.80;99.90
25128;DHT22;13107;51.304;6.866;2024-01-30T11:37:10;11.80;99.90
25128;DHT22;13107;51.304;6.866;2024-01-30T11:41:14;11.80;99.90
25128;DHT22;13107;51.304;6.866;2024-01-30T11:45:17;11.80;99.90
25128;DHT22;13107;51.304;6.866;2024-01-30T11:49:19;11.80;99.90
25128;DHT22;13107;51.304;6.866;2024-01-30T11:53:21;11.70;99.90
25128;DHT22;13107;51.304;6.866;2024-01-30T11:57:26;11.60;99.90
25128;DHT22;13107;51.304;6.866;2024-01-30T12:01:27;11.60;99.90
25128;DHT22;13107;51.304;6.866;2024-01-30T12:05:34;11.60;99.90
25128;DHT22;13107;51.304;6.866;2024-01-30T12:09:36;11.70;99.90
25128;DHT22;13107;51.304;6.866;2024-01-30T12:13:37;11.70;99.90
25128;DHT22;13107;51.304;6.866;2024-01-30T12:17:40;11.60;99.90
25128;DHT22;13107;51.304;6.866;2024-01-30T12:21:42;11.70;99.90
25128;DHT22;13107;51.304;6.866;2024-01-30T12:25:43;11.80;99.90
25128;DHT22;13107;51.304;6.866;2024-01-30T12:29:45;11.80;99.90
25128;DHT22;13107;51.304;6.866;2024-01-30T12:33:49;11.80;99.90
25128;DHT22;13107;51.304;6.866;2024-01-30T12:37:51;11.80;99.90
25128;DHT22;13107;51.304;6.866;2024-01-30T12:41:53;11.70;99.90
25128;DHT22;13107;51.304;6.866;2024-01-30T12:45:55;11.70;99.90
25128;DHT22;13107;51.304;6.866;2024-01-30T12:49:56;11.70;99.90
25128;DHT22;13107;51.304;6.866;2024-01-30T12:54:05;11.60;99.90
25128;DHT22;13107;51.304;6.866;2024-01-30T12:58:06;11.60;99.90
25128;DHT22;13107;51.304;6.866;2024-01-30T13:02:09;11.60;99.90
25128;DHT22;13107;51.304;6.866;2024-01-30T13:06:10;11.60;99.90
25128;DHT22;13107;51.304;6.866;2024-01-30T13:10:12;11.60;99.90
25128;DHT22;13107;51.304;6.866;2024-01-30T13:14:14;11.70;99.90
25128;DHT22;13107;51.304;6.866;2024-01-30T13:18:16;11.70;99.90
25128;DHT22;13107;51.304;6.866;2024-01-30T13:22:18;11.70;99.90
25128;DHT22;13107;51.304;6.866;2024-01-30T13:26:22;11.70;99.90
25128;DHT22;13107;51.304;6.866;2024-01-30T13:30:24;11.70;99.90
25128;DHT22;13107;51.304;6.866;2024-01-30T13:34:26;11.80;99.90
25128;DHT22;13107;51.304;6.866;2024-01-30T13:38:28;11.80;99.90
25128;DHT22;13107;51.304;6.866;2024-01-30T13:42:29;11.80;99.90
25128;DHT22;13107;51.304;6.866;2024-01-30T13:46:31;11.80;99.90
25128;DHT22;13107;51.304;6.866;2024-01-30T13:50:33;11.80;99.90
25128;DHT22;13107;51.304;6.866;2024-01-30T13:54:35;11.90;99.90
25128;DHT22;13107;51.304;6.866;2024-01-30T13:58:37;12.00;99.90
25128;DHT22;13107;51.304;6.866;2024-01-30T14:02:39;11.90;99.90
25128;DHT22;13107;51.304;6.866;2024-01-30T14:06:41;11.80;99.90
25128;DHT22;13107;51.304;6.866;2024-01-30T14:10:54;11.80;99.90
25128;DHT22;13107;51.304;6.866;2024-01-30T14:14:59;11.80;99.90
25128;DHT22;13107;51.304;6.866;2024-01-30T14:19:03;12.00;99.90
25128;DHT22;13107;51.304;6.866;2024-01-30T14:23:05;12.30;99.90
25128;DHT22;13107;51.304;6.866;2024-01-30T14:27:06;12.30;99.90
25128;DHT22;13107;51.304;6.866;2024-01-30T14:31:10;12.30;99.90
25128;DHT22;13107;51.304;6.866;2024-01-30T14:35:13;12.40;99.90
25128;DHT22;13107;51.304;6.866;2024-01-30T14:39:15;12.30;99.90
25128;DHT22;13107;51.304;6.866;2024-01-30T14:43:16;12.20;99.90
25128;DHT22;13107;51.304;6.866;2024-01-30T14:47:19;12.10;99.90
25128;DHT22;13107;51.304;6.866;2024-01-30T14:51:20;12.00;99.90
25128;DHT22;13107;51.304;6.866;2024-01-30T14:55:22;11.90;99.90
25128;DHT22;13107;51.304;6.866;2024-01-30T14:59:24;11.90;99.90
25128;DHT22;13107;51.304;6.866;2024-01-30T15:03:27;11.80;99.90
25128;DHT22;13107;51.304;6.866;2024-01-30T15:07:30;11.90;99.90
25128;DHT22;13107;51.304;6.866;2024-01-30T15:11:44;12.00;99.90
25128;DHT22;13107;51.304;6.866;2024-01-30T15:15:46;11.70;99.90
25128;DHT22;13107;51.304;6.866;2024-01-30T15:19:48;11.70;99.90
25128;DHT22;13107;51.304;6.866;2024-01-30T15:23:50;11.60;99.90
25128;DHT22;13107;51.304;6.866;2024-01-30T15:27:52;11.60;99.90
25128;DHT22;13107;51.304;6.866;2024-01-30T15:31:53;11.50;99.90
25128;DHT22;13107;51.304;6.866;2024-01-30T15:35:55;11.40;99.90
25128;DHT22;13107;51.304;6.866;2024-01-30T15:39:57;11.20;99.90
25128;DHT22;13107;51.304;6.866;2024-01-30T15:43:59;11.10;99.90
25128;DHT22;13107;51.304;6.866;2024-01-30T15:48:04;11.00;99.90
25128;DHT22;13107;51.304;6.866;2024-01-30T15:52:06;11.00;99.90
25128;DHT22;13107;51.304;6.866;2024-01-30T15:56:08;10.90;99.90
25128;DHT22;13107;51.304;6.866;2024-01-30T16:00:12;10.80;99.90
25128;DHT22;13107;51.304;6.866;2024-01-30T16:04:15;10.80;99.90
25128;DHT22;13107;51.304;6.866;2024-01-30T16:08:17;10.70;99.90
25128;DHT22;13107;51.304;6.866;2024-01-30T16:12:19;10.70;99.90
25128;DHT22;13107;51.304;6.866;2024-01-30T16:16:21;10.60;99.90
25128;DHT22;13107;51.304;6.866;2024-01-30T16:20:23;10.50;99.90
25128;DHT22;13107;51.304;6.866;2024-01-30T16:24:25;10.40;99.90
25128;DHT22;13107;51.304;6.866;2024-01-30T16:28:27;10.40;99.90
25128;DHT22;13107;51.304;6.866;2024-01-30T16:32:29;10.30;99.90
25128;DHT22;13107;51.304;6.866;2024-01-30T16:36:33;10.30;99.90
25128;DHT22;13107;51.304;6.866;2024-01-30T16:40:34;10.10;99.90
25128;DHT22;13107;51.304;6.866;2024-01-30T16:44:36;10.00;99.90
25128;DHT22;13107;51.304;6.866;2024-01-30T16:48:38;9.80;99.90
25128;DHT22;13107;51.304;6.866;2024-01-30T16:52:40;9.70;99.90
25128;DHT22;13107;51.304;6.866;2024-01-30T16:56:42;9.50;99.90
25128;DHT22;13107;51.304;6.866;2024-01-30T17:00:49;9.40;99.90
25128;DHT22;13107;51.304;6.866;2024-01-30T17:04:51;9.40;99.90
25128;DHT22;13107;51.304;6.866;2024-01-30T17:08:53;9.50;99.90
25128;DHT22;13107;51.304;6.866;2024-01-30T17:12:54;9.50;99.90
25128;DHT22;13107;51.304;6.866;2024-01-30T17:16:57;9.50;99.90
25128;DHT22;13107;51.304;6.866;2024-01-30T17:21:07;9.50;99.90
25128;DHT22;13107;51.304;6.866;2024-01-30T17:25:10;9.60;99.90
25128;DHT22;13107;51.304;6.866;2024-01-30T17:29:12;9.60;99.90
25128;DHT22;13107;51.304;6.866;2024-01-30T17:33:16;9.70;99.90
25128;DHT22;13107;51.304;6.866;2024-01-30T17:37:18;9.60;99.90
25128;DHT22;13107;51.304;6.866;2024-01-30T17:41:20;9.70;99.90
25128;DHT22;13107;51.304;6.866;2024-01-30T17:45:22;9.70;99.90
25128;DHT22;13107;51.304;6.866;2024-01-30T17:49:24;9.60;99.90
25128;DHT22;13107;51.304;6.866;2024-01-30T17:53:28;9.40;99.90
25128;DHT22;13107;51.304;6.866;2024-01-30T17:57:30;9.40;99.90
25128;DHT22;13107;51.304;6.866;2024-01-30T18:01:33;9.30;99.90
25128;DHT22;13107;51.304;6.866;2024-01-30T18:05:35;9.30;99.90
25128;DHT22;13107;51.304;6.866;2024-01-30T18:09:37;9.20;99.90
25128;DHT22;13107;51.304;6.866;2024-01-30T18:13:39;9.10;99.90
25128;DHT22;13107;51.304;6.866;2024-01-30T18:17:41;9.10;99.90
25128;DHT22;13107;51.304;6.866;2024-01-30T18:21:43;9.00;99.90
25128;DHT22;13107;51.304;6.866;2024-01-30T18:25:45;9.00;99.90
25128;DHT22;13107;51.304;6.866;2024-01-30T18:29:47;8.90;99.90
25128;DHT22;13107;51.304;6.866;2024-01-30T18:33:53;8.90;99.90
25128;DHT22;13107;51.304;6.866;2024-01-30T18:37:56;8.90;99.90
25128;DHT22;13107;51.304;6.866;2024-01-30T18:41:58;8.90;99.90
25128;DHT22;13107;51.304;6.866;2024-01-30T18:46:00;8.80;99.90
25128;DHT22;13107;51.304;6.866;2024-01-30T18:50:01;8.80;99.90
25128;DHT22;13107;51.304;6.866;2024-01-30T18:54:03;8.80;99.90
25128;DHT22;13107;51.304;6.866;2024-01-30T18:58:05;8.80;99.90
25128;DHT22;13107;51.304;6.866;2024-01-30T19:02:08;8.80;99.90
25128;DHT22;13107;51.304;6.866;2024-01-30T19:06:09;8.70;99.90
25128;DHT22;13107;51.304;6.866;2024-01-30T19:10:13;8.70;99.90
25128;DHT22;13107;51.304;6.866;2024-01-30T19:14:19;8.70;99.90
25128;DHT22;13107;51.304;6.866;2024-01-30T19:18:21;8.70;99.90
25128;DHT22;13107;51.304;6.866;2024-01-30T19:22:23;8.60;99.90
25128;DHT22;13107;51.304;6.866;2024-01-30T19:26:25;8.60;99.90
25128;DHT22;13107;51.304;6.866;2024-01-30T19:30:27;8.60;99.90
25128;DHT22;13107;51.304;6.866;2024-01-30T19:34:30;8.70;99.90
25128;DHT22;13107;51.304;6.866;2024-01-30T19:38:32;8.70;99.90
25128;DHT22;13107;51.304;6.866;2024-01-30T19:42:34;8.60;99.90
25128;DHT22;13107;51.304;6.866;2024-01-30T19:46:36;8.50;99.90
25128;DHT22;13107;51.304;6.866;2024-01-30T19:50:46;8.50;99.90
25128;DHT22;13107;51.304;6.866;2024-01-30T19:54:48;8.50;99.90
25128;DHT22;13107;51.304;6.866;2024-01-30T19:58:50;8.50;99.90
25128;DHT22;13107;51.304;6.866;2024-01-30T20:02:52;8.50;99.90
25128;DHT22;13107;51.304;6.866;2024-01-30T20:06:57;8.40;99.90
25128;DHT22;13107;51.304;6.866;2024-01-30T20:10:59;8.50;99.90
25128;DHT22;13107;51.304;6.866;2024-01-30T20:15:03;8.40;99.90
25128;DHT22;13107;51.304;6.866;2024-01-30T20:19:05;8.40;99.90
25128;DHT22;13107;51.304;6.866;2024-01-30T20:23:08;8.40;99.90
25128;DHT22;13107;51.304;6.866;2024-01-30T20:27:09;8.40;99.90
25128;DHT22;13107;51.304;6.866;2024-01-30T20:31:11;8.40;99.90
25128;DHT22;13107;51.304;6.866;2024-01-30T20:35:13;8.30;99.90
25128;DHT22;13107;51.304;6.866;2024-01-30T20:39:16;8.30;99.90
25128;DHT22;13107;51.304;6.866;2024-01-30T20:43:18;8.30;99.90
25128;DHT22;13107;51.304;6.866;2024-01-30T20:47:20;8.20;99.90
25128;DHT22;13107;51.304;6.866;2024-01-30T20:51:21;8.10;99.90
25128;DHT22;13107;51.304;6.866;2024-01-30T20:55:23;8.20;99.90
25128;DHT22;13107;51.304;6.866;2024-01-30T20:59:25;8.10;99.90
25128;DHT22;13107;51.304;6.866;2024-01-30T21:03:27;8.20;99.90
25128;DHT22;13107;51.304;6.866;2024-01-30T21:07:30;8.10;99.90
25128;DHT22;13107;51.304;6.866;2024-01-30T21:11:32;8.00;99.90
25128;DHT22;13107;51.304;6.866;2024-01-30T21:15:34;7.90;99.90
25128;DHT22;13107;51.304;6.866;2024-01-30T21:19:36;8.30;99.90
25128;DHT22;13107;51.304;6.866;2024-01-30T21:23:41;8.10;99.90
25128;DHT22;13107;51.304;6.866;2024-01-30T21:27:43;7.90;99.90
25128;DHT22;13107;51.304;6.866;2024-01-30T21:31:44;7.90;99.90
25128;DHT22;13107;51.304;6.866;2024-01-30T21:35:47;7.70;99.90
25128;DHT22;13107;51.304;6.866;2024-01-30T21:39:49;7.70;99.90
25128;DHT22;13107;51.304;6.866;2024-01-30T21:43:51;7.70;99.90
25128;DHT22;13107;51.304;6.866;2024-01-30T21:47:54;7.60;99.90
25128;DHT22;13107;51.304;6.866;2024-01-30T21:51:56;7.60;99.90
25128;DHT22;13107;51.304;6.866;2024-01-30T21:55:58;7.60;99.90
25128;DHT22;13107;51.304;6.866;2024-01-30T22:00:00;7.60;99.90
25128;DHT22;13107;51.304;6.866;2024-01-30T22:04:02;7.60;99.90
25128;DHT22;13107;51.304;6.866;2024-01-30T22:08:05;7.70;99.90
25128;DHT22;13107;51.304;6.866;2024-01-30T22:12:06;7.60;99.90
25128;DHT22;13107;51.304;6.866;2024-01-30T22:16:10;7.60;99.90
25128;DHT22;13107;51.304;6.866;2024-01-30T22:20:11;7.60;99.90
25128;DHT22;13107;51.304;6.866;2024-01-30T22:24:13;7.60;99.90
25128;DHT22;13107;51.304;6.866;2024-01-30T22:28:15;7.70;99.90
25128;DHT22;13107;51.304;6.866;2024-01-30T22:32:17;7.70;99.90
25128;DHT22;13107;51.304;6.866;2024-01-30T22:36:19;7.70;99.90
25128;DHT22;13107;51.304;6.866;2024-01-30T22:40:21;7.70;99.90
25128;DHT22;13107;51.304;6.866;2024-01-30T22:44:22;7.60;99.90
25128;DHT22;13107;51.304;6.866;2024-01-30T22:48:24;7.60;99.90
25128;DHT22;13107;51.304;6.866;2024-01-30T22:52:26;7.60;99.90
25128;DHT22;13107;51.304;6.866;2024-01-30T22:56:28;7.60;99.90
25128;DHT22;13107;51.304;6.866;2024-01-30T23:00:30;7.60;99.90
25128;DHT22;13107;51.304;6.866;2024-01-30T23:04:33;7.60;99.90
25128;DHT22;13107;51.304;6.866;2024-01-30T23:08:35;7.60;99.90
25128;DHT22;13107;51.304;6.866;2024-01-30T23:12:37;7.60;99.90
25128;DHT22;13107;51.304;6.866;2024-01-30T23:16:38;7.50;99.90
25128;DHT22;13107;51.304;6.866;2024-01-30T23:20:40;7.50;99.90
25128;DHT22;13107;51.304;6.866;2024-01-30T23:24:42;7.60;99.90
25128;DHT22;13107;51.304;6.866;2024-01-30T23:28:44;7.60;99.90
25128;DHT22;13107;51.304;6.866;2024-01-30T23:32:46;7.60;99.90
25128;DHT22;13107;51.304;6.866;2024-01-30T23:36:48;7.50;99.90
25128;DHT22;13107;51.304;6.866;2024-01-30T23:40:54;7.50;99.90
25128;DHT22;13107;51.304;6.866;2024-01-30T23:44:56;7.60;99.90
25128;DHT22;13107;51.304;6.866;2024-01-30T23:48:58;7.60;99.90
25128;DHT22;13107;51.304;6.866;2024-01-30T23:53:00;7.50;99.90
25128;DHT22;13107;51.304;6.866;2024-01-30T23:57:02;7.40;99.90
